createdAt,value
2018-01-20T00:01:01.714Z,100464.97
2018-01-20T00:03:29.257Z,100457.11
2018-01-20T00:05:56.798Z,100459.41
2018-01-20T00:08:24.338Z,100454.03
2018-01-20T00:11:03.918Z,100444.81
2018-01-20T00:13:31.463Z,100449.45
2018-01-20T00:15:59.044Z,100447.43
2018-01-20T00:18:26.590Z,100438.91
2018-01-20T00:20:54.826Z,100443.91
2018-01-20T00:23:22.442Z,100451.41
2018-01-20T00:25:57.349Z,100452.62
2018-01-20T00:28:24.898Z,100449.82
2018-01-20T00:30:52.490Z,100444.54
2018-01-20T00:33:20.259Z,100446.80
2018-01-20T00:35:47.802Z,100443.50
2018-01-20T00:38:15.462Z,100445.03
2018-01-20T00:40:43.942Z,100441.38
2018-01-20T00:43:11.543Z,100436.65
2018-01-20T00:45:39.089Z,100435.56
2018-01-20T00:48:07.430Z,100430.00
2018-01-20T00:50:34.974Z,100435.88
2018-01-20T00:53:02.519Z,100435.23
2018-01-20T00:55:30.073Z,100435.14
2018-01-20T00:57:57.620Z,100443.78
2018-01-20T01:00:26.079Z,100436.75
2018-01-20T01:02:54.413Z,100439.75
2018-01-20T01:05:21.993Z,100436.25
2018-01-20T01:07:49.534Z,100436.00
2018-01-20T01:10:18.019Z,100437.94
2018-01-20T01:12:45.630Z,100434.39
2018-01-20T01:15:14.026Z,100436.80
2018-01-20T01:17:42.395Z,100437.42
2018-01-20T01:20:09.938Z,100435.06
2018-01-20T01:22:37.478Z,100431.52
2018-01-20T01:25:05.019Z,100433.84
2018-01-20T01:27:32.599Z,100436.41
2018-01-20T01:30:00.153Z,100436.38
2018-01-20T01:32:28.734Z,100436.99
2018-01-20T01:34:56.335Z,100432.53
2018-01-20T01:37:23.898Z,100437.99
2018-01-20T01:39:51.473Z,100443.54
2018-01-20T01:42:19.118Z,100432.36
2018-01-20T01:44:46.659Z,100430.70
2018-01-20T01:47:14.209Z,100434.47
2018-01-20T01:49:41.802Z,100431.52
2018-01-20T01:52:09.378Z,100433.25
2018-01-20T01:54:36.999Z,100420.50
2018-01-20T01:57:04.590Z,100429.21
2018-01-20T01:59:32.151Z,100427.64
2018-01-20T02:01:59.708Z,100429.38
2018-01-20T02:04:27.250Z,100431.95
2018-01-20T02:06:54.834Z,100425.50
2018-01-20T02:09:22.373Z,100429.73
2018-01-20T02:11:49.954Z,100431.55
2018-01-20T02:14:17.498Z,100431.22
2018-01-20T02:16:45.179Z,100434.94
2018-01-20T02:19:12.870Z,100431.99
2018-01-20T02:21:40.474Z,100434.39
2018-01-20T02:24:08.950Z,100428.24
2018-01-20T02:26:36.551Z,100429.87
2018-01-20T02:29:04.878Z,100435.66
2018-01-20T02:31:32.422Z,100433.87
2018-01-20T02:33:59.975Z,100432.13
2018-01-20T02:36:28.625Z,100428.50
2018-01-20T02:38:57.293Z,100429.15
2018-01-20T02:41:25.618Z,100430.21
2018-01-20T02:43:53.168Z,100423.02
2018-01-20T02:46:20.818Z,100420.64
2018-01-20T02:48:48.357Z,100415.75
2018-01-20T02:51:16.047Z,100413.34
2018-01-20T02:53:43.593Z,100414.77
2018-01-20T02:56:11.338Z,100404.20
2018-01-20T02:58:38.883Z,100399.26
2018-01-20T03:01:07.302Z,100396.98
2018-01-20T03:03:34.896Z,100395.62
2018-01-20T03:06:02.482Z,100392.58
2018-01-20T03:08:30.059Z,100394.52
2018-01-20T03:10:57.601Z,100390.92
2018-01-20T03:13:25.388Z,100392.44
2018-01-20T03:15:52.970Z,100389.91
2018-01-20T03:18:20.516Z,100388.32
2018-01-20T03:20:48.072Z,100390.63
2018-01-20T03:23:15.761Z,100388.50
2018-01-20T03:25:43.302Z,100391.62
2018-01-20T03:28:10.849Z,100392.27
2018-01-20T03:30:38.407Z,100392.59
2018-01-20T03:33:06.286Z,100389.63
2018-01-20T03:35:34.600Z,100384.98
2018-01-20T03:38:02.179Z,100386.98
2018-01-20T03:40:29.758Z,100388.63
2018-01-20T03:42:57.305Z,100390.95
2018-01-20T03:45:24.904Z,100388.52
2018-01-20T03:47:52.470Z,100388.98
2018-01-20T03:50:20.020Z,100387.13
2018-01-20T03:52:47.562Z,100386.91
2018-01-20T03:55:15.106Z,100390.25
2018-01-20T03:57:42.709Z,100392.86
2018-01-20T04:00:11.103Z,100386.97
2018-01-20T04:02:38.678Z,100386.39
2018-01-20T04:05:06.217Z,100390.25
2018-01-20T04:07:33.809Z,100387.01
2018-01-20T04:10:01.440Z,100394.25
2018-01-20T04:12:29.129Z,100387.21
2018-01-20T04:14:57.458Z,100391.84
2018-01-20T04:17:25.774Z,100389.05
2018-01-20T04:19:53.451Z,100388.59
2018-01-20T04:22:20.991Z,100388.71
2018-01-20T04:24:48.536Z,100390.55
2018-01-20T04:27:16.077Z,100385.44
2018-01-20T04:29:43.622Z,100388.70
2018-01-20T04:32:11.166Z,100384.61
2018-01-20T04:34:38.810Z,100388.36
2018-01-20T04:37:06.369Z,100385.78
2018-01-20T04:39:33.997Z,100384.38
2018-01-20T04:42:01.594Z,100380.53
2018-01-20T04:44:29.363Z,100382.23
2018-01-20T04:46:56.906Z,100380.50
2018-01-20T04:49:24.451Z,100381.52
2018-01-20T04:51:52.002Z,100377.95
2018-01-20T04:54:19.551Z,100376.41
2018-01-20T04:56:47.091Z,100370.97
2018-01-20T04:59:14.634Z,100366.16
2018-01-20T05:01:42.951Z,100368.52
2018-01-20T05:04:10.495Z,100368.59
2018-01-20T05:06:38.942Z,100371.21
2018-01-20T05:09:07.264Z,100366.31
2018-01-20T05:11:35.579Z,100370.28
2018-01-20T05:14:03.123Z,100367.19
2018-01-20T05:16:30.670Z,100363.55
2018-01-20T05:18:58.249Z,100368.16
2018-01-20T05:21:25.876Z,100368.03
2018-01-20T05:23:53.549Z,100373.30
2018-01-20T05:26:21.089Z,100371.54
2018-01-20T05:28:48.633Z,100371.86
2018-01-20T05:31:16.174Z,100371.78
2018-01-20T05:33:43.720Z,100369.84
2018-01-20T05:36:11.262Z,100369.25
2018-01-20T05:38:39.409Z,100371.80
2018-01-20T05:41:06.974Z,100364.86
2018-01-20T05:43:35.469Z,100360.49
2018-01-20T05:46:03.903Z,100362.80
2018-01-20T05:48:31.482Z,100355.37
2018-01-20T05:50:59.031Z,100358.30
2018-01-20T05:53:26.681Z,100352.03
2018-01-20T05:55:54.257Z,100364.05
2018-01-20T05:58:21.878Z,100360.92
2018-01-20T06:00:49.428Z,100358.63
2018-01-20T06:03:16.992Z,100353.86
2018-01-20T06:05:44.539Z,100348.48
2018-01-20T06:08:12.081Z,100353.29
2018-01-20T06:10:39.718Z,100356.19
2018-01-20T06:13:07.258Z,100362.27
2018-01-20T06:15:35.325Z,100357.50
2018-01-20T06:18:02.954Z,100354.58
2018-01-20T06:20:30.553Z,100355.89
2018-01-20T06:22:58.096Z,100353.94
2018-01-20T06:25:25.650Z,100349.10
2018-01-20T06:27:53.243Z,100355.10
2018-01-20T06:30:20.791Z,100355.77
2018-01-20T06:32:48.333Z,100357.50
2018-01-20T06:35:15.881Z,100356.05
2018-01-20T06:37:43.441Z,100354.97
2018-01-20T06:40:11.029Z,100354.33
2018-01-20T06:42:38.582Z,100352.69
2018-01-20T06:45:06.176Z,100353.01
2018-01-20T06:47:33.731Z,100348.98
2018-01-20T06:50:01.374Z,100348.45
2018-01-20T06:52:28.917Z,100350.94
2018-01-20T06:54:56.461Z,100350.59
2018-01-20T06:57:24.081Z,100357.48
2018-01-20T06:59:52.661Z,100357.28
2018-01-20T07:02:21.198Z,100366.28
2018-01-20T07:04:48.741Z,100361.22
2018-01-20T07:07:16.320Z,100365.44
2018-01-20T07:09:43.862Z,100356.61
2018-01-20T07:12:11.451Z,100370.47
2018-01-20T07:14:39.326Z,100366.40
2018-01-20T07:17:06.947Z,100367.34
2018-01-20T07:19:34.494Z,100359.63
2018-01-20T07:22:02.045Z,100367.49
2018-01-20T07:24:29.586Z,100368.02
2018-01-20T07:26:57.166Z,100374.78
2018-01-20T07:29:24.830Z,100376.30
2018-01-20T07:31:52.463Z,100369.42
2018-01-20T07:34:20.235Z,100367.73
2018-01-20T07:36:47.783Z,100369.47
2018-01-20T07:39:15.366Z,100366.90
2018-01-20T07:41:42.908Z,100365.61
2018-01-20T07:44:10.454Z,100366.54
2018-01-20T07:46:38.002Z,100365.41
2018-01-20T07:49:05.570Z,100353.14
2018-01-20T07:51:33.282Z,100356.61
2018-01-20T07:54:00.927Z,100360.23
2018-01-20T07:56:28.476Z,100355.03
2018-01-20T07:58:56.051Z,100357.61
2018-01-20T08:01:23.599Z,100353.44
2018-01-20T08:03:51.193Z,100366.34
2018-01-20T08:06:18.733Z,100355.54
2018-01-20T08:08:46.319Z,100352.75
2018-01-20T08:11:13.864Z,100360.15
2018-01-20T08:13:42.354Z,100353.40
2018-01-20T08:16:10.015Z,100361.86
2018-01-20T08:18:38.269Z,100359.52
2018-01-20T08:21:05.823Z,100359.16
2018-01-20T08:23:33.429Z,100357.97
2018-01-20T08:26:00.979Z,100360.78
2018-01-20T08:28:28.530Z,100357.59
2018-01-20T08:30:56.100Z,100359.74
2018-01-20T08:33:23.643Z,100365.08
2018-01-20T08:35:51.189Z,100364.45
2018-01-20T08:38:18.738Z,100362.28
2018-01-20T08:40:46.280Z,100362.55
2018-01-20T08:43:13.838Z,100355.12
2018-01-20T08:45:41.378Z,100354.30
2018-01-20T08:48:08.926Z,100355.84
2018-01-20T08:50:36.510Z,100350.64
2018-01-20T08:53:04.142Z,100357.11
2018-01-20T08:55:31.706Z,100358.47
2018-01-20T08:57:59.372Z,100359.08
2018-01-20T09:00:26.918Z,100355.43
2018-01-20T09:02:54.458Z,100355.20
2018-01-20T09:05:22.006Z,100364.77
2018-01-20T09:07:49.953Z,100362.87
2018-01-20T09:10:17.603Z,100364.83
2018-01-20T09:12:45.154Z,100365.50
2018-01-20T09:15:12.753Z,100357.47
2018-01-20T09:17:40.289Z,100359.50
2018-01-20T09:20:07.891Z,100358.59
2018-01-20T09:22:35.498Z,100360.34
2018-01-20T09:25:03.269Z,100365.82
2018-01-20T09:27:30.819Z,100367.30
2018-01-20T09:29:58.482Z,100367.77
2018-01-20T09:32:26.036Z,100368.55
2018-01-20T09:34:54.381Z,100362.37
2018-01-20T09:37:22.530Z,100366.13
2018-01-20T09:39:50.081Z,100363.65
2018-01-20T09:42:17.658Z,100367.80
2018-01-20T09:44:45.288Z,100371.32
2018-01-20T09:47:12.870Z,100354.50
2018-01-20T09:49:41.313Z,100351.34
2018-01-20T09:52:09.546Z,100352.84
2018-01-20T09:54:38.004Z,100345.95
2018-01-20T09:57:06.473Z,100345.50
2018-01-20T09:59:34.905Z,100342.51
2018-01-20T10:02:02.468Z,100336.23
2018-01-20T10:04:30.058Z,100329.20
2018-01-20T10:06:57.598Z,100333.27
2018-01-20T10:09:26.099Z,100336.92
2018-01-20T10:11:53.662Z,100333.27
2018-01-20T10:14:21.338Z,100323.05
2018-01-20T10:16:48.989Z,100325.72
2018-01-20T10:19:16.624Z,100316.95
2018-01-20T10:21:44.181Z,100319.63
2018-01-20T10:24:11.778Z,100318.97
2018-01-20T10:26:39.371Z,100331.27
2018-01-20T10:29:06.991Z,100332.31
2018-01-20T10:31:34.532Z,100330.61
2018-01-20T10:34:02.371Z,100327.30
2018-01-20T10:36:29.994Z,100321.66
2018-01-20T10:38:57.573Z,100324.72
2018-01-20T10:41:25.129Z,100320.58
2018-01-20T10:43:52.709Z,100314.17
2018-01-20T10:46:20.254Z,100307.91
2018-01-20T10:48:47.834Z,100313.13
2018-01-20T10:51:15.453Z,100300.48
2018-01-20T10:53:43.283Z,100304.05
2018-01-20T10:56:10.860Z,100301.70
2018-01-20T10:58:39.390Z,100304.31
2018-01-20T11:01:06.961Z,100303.25
2018-01-20T11:03:34.578Z,100302.88
2018-01-20T11:06:02.350Z,100304.41
2018-01-20T11:08:30.798Z,100290.23
2018-01-20T11:10:58.438Z,100289.34
2018-01-20T11:13:26.029Z,100288.70
2018-01-20T11:15:53.579Z,100274.51
2018-01-20T11:18:21.136Z,100270.94
2018-01-20T11:20:48.735Z,100270.76
2018-01-20T11:23:16.397Z,100261.63
2018-01-20T11:25:43.938Z,100256.06
2018-01-20T11:28:11.528Z,100254.24
2018-01-20T11:30:39.295Z,100257.16
2018-01-20T11:33:06.883Z,100254.63
2018-01-20T11:35:34.514Z,100249.73
2018-01-20T11:38:02.049Z,100246.89
2018-01-20T11:40:29.589Z,100243.67
2018-01-20T11:42:57.130Z,100239.03
2018-01-20T11:45:24.684Z,100238.32
2018-01-20T11:47:52.463Z,100231.22
2018-01-20T11:50:20.078Z,100230.61
2018-01-20T11:52:47.624Z,100233.56
2018-01-20T11:55:16.011Z,100225.84
2018-01-20T11:57:43.552Z,100217.88
2018-01-20T12:00:12.002Z,100211.32
2018-01-20T12:02:40.247Z,100209.27
2018-01-20T12:05:07.790Z,100204.20
2018-01-20T12:07:35.357Z,100205.33
2018-01-20T12:10:02.904Z,100201.33
2018-01-20T12:12:30.448Z,100195.30
2018-01-20T12:14:57.983Z,100196.34
2018-01-20T12:17:25.593Z,100203.20
2018-01-20T12:19:53.190Z,100194.95
2018-01-20T12:22:20.749Z,100191.30
2018-01-20T12:24:48.291Z,100188.09
2018-01-20T12:27:16.053Z,100189.70
2018-01-20T12:29:44.397Z,100193.78
2018-01-20T12:32:11.957Z,100195.70
2018-01-20T12:34:39.504Z,100190.23
2018-01-20T12:37:07.077Z,100189.94
2018-01-20T12:39:34.623Z,100186.05
2018-01-20T12:42:02.173Z,100180.83
2018-01-20T12:44:29.753Z,100176.63
2018-01-20T12:46:57.433Z,100180.85
2018-01-20T12:49:24.991Z,100178.66
2018-01-20T12:51:53.394Z,100178.34
2018-01-20T12:54:21.744Z,100180.68
2018-01-20T12:56:50.661Z,100177.66
2018-01-20T12:59:19.258Z,100177.91
2018-01-20T13:01:48.090Z,100167.70
2018-01-20T13:04:15.703Z,100172.73
2018-01-20T13:06:43.241Z,100165.24
2018-01-20T13:09:10.890Z,100160.68
2018-01-20T13:11:40.027Z,100154.19
2018-01-20T13:14:08.629Z,100151.16
2018-01-20T13:16:43.799Z,100153.62
2018-01-20T13:19:17.878Z,100146.73
2018-01-20T13:21:48.390Z,100140.35
2018-01-20T13:24:22.403Z,100141.31
2018-01-20T13:26:54.769Z,100140.88
2018-01-20T13:32:14.870Z,100127.33
2018-01-20T13:35:07.468Z,100127.87
2018-01-20T13:40:47.453Z,100120.11
2018-01-20T13:43:17.908Z,100116.73
2018-01-20T13:49:05.399Z,100115.85
2018-01-20T13:51:35.929Z,100118.37
2018-01-20T13:54:05.225Z,100112.77
2018-01-20T13:56:34.007Z,100119.66
2018-01-20T13:59:03.914Z,100114.45
2018-01-20T14:01:33.285Z,100121.63
2018-01-20T14:04:03.042Z,100117.98
2018-01-20T14:06:31.828Z,100123.17
2018-01-20T14:09:00.732Z,100121.32
2018-01-20T14:11:28.994Z,100122.46
2018-01-20T14:14:06.628Z,100122.17
2018-01-20T14:16:45.358Z,100119.25
2018-01-20T14:19:13.609Z,100112.48
2018-01-20T14:24:38.543Z,100107.77
2018-01-20T14:27:12.629Z,100109.91
2018-01-20T14:29:45.918Z,100109.55
2018-01-20T14:32:15.513Z,100104.34
2018-01-20T14:34:51.537Z,100109.84
2018-01-20T14:37:21.920Z,100113.20
2018-01-20T14:39:52.188Z,100113.11
2018-01-20T14:45:07.993Z,100101.80
2018-01-20T14:47:46.058Z,100102.05
2018-01-20T14:50:15.769Z,100094.03
2018-01-20T14:52:45.648Z,100093.84
2018-01-20T14:55:21.233Z,100089.47
2018-01-20T14:58:04.777Z,100087.21
2018-01-20T15:00:39.099Z,100086.92
2018-01-20T15:03:17.432Z,100077.64
2018-01-20T15:05:50.709Z,100074.99
2018-01-20T15:08:19.846Z,100079.03
2018-01-20T15:10:47.389Z,100078.52
2018-01-20T15:13:15.022Z,100072.38
2018-01-20T15:15:42.687Z,100074.83
2018-01-20T15:18:10.430Z,100071.82
2018-01-20T15:20:38.017Z,100073.66
2018-01-20T15:23:05.566Z,100069.00
2018-01-20T15:25:33.175Z,100067.13
2018-01-20T15:28:00.722Z,100068.84
2018-01-20T15:30:28.273Z,100067.92
2018-01-20T15:32:55.869Z,100065.05
2018-01-20T15:35:23.478Z,100061.08
2018-01-20T15:37:51.022Z,100063.52
2018-01-20T15:40:18.605Z,100060.83
2018-01-20T15:42:46.902Z,100061.77
2018-01-20T15:45:15.330Z,100054.70
2018-01-20T15:47:42.897Z,100055.95
2018-01-20T15:50:10.564Z,100052.53
2018-01-20T15:52:38.115Z,100054.65
2018-01-20T15:55:05.707Z,100054.07
2018-01-20T15:57:33.258Z,100050.84
2018-01-20T16:00:00.800Z,100051.09
2018-01-20T16:02:28.350Z,100046.80
2018-01-20T16:04:55.946Z,100051.05
2018-01-20T16:07:23.486Z,100047.76
2018-01-20T16:09:51.030Z,100046.47
2018-01-20T16:12:18.574Z,100038.14
2018-01-20T16:14:46.190Z,100034.34
2018-01-20T16:17:14.610Z,100038.50
2018-01-20T16:19:43.763Z,100028.05
2018-01-20T16:22:15.268Z,100033.18
2018-01-20T16:24:43.877Z,100031.50
2018-01-20T16:27:11.574Z,100027.63
2018-01-20T16:29:39.745Z,100023.89
2018-01-20T16:32:07.841Z,100031.01
2018-01-20T16:34:35.459Z,100023.45
2018-01-20T16:37:03.005Z,100019.75
2018-01-20T16:39:31.398Z,100019.92
2018-01-20T16:41:58.942Z,100014.11
2018-01-20T16:44:26.511Z,100014.44
2018-01-20T16:46:54.899Z,100011.83
2018-01-20T16:49:22.437Z,100019.16
2018-01-20T16:51:50.015Z,100015.41
2018-01-20T16:54:17.556Z,100013.43
2018-01-20T16:56:45.264Z,100015.02
2018-01-20T16:59:12.945Z,100010.64
2018-01-20T17:01:40.526Z,100003.61
2018-01-20T17:04:08.127Z,100006.73
2018-01-20T17:06:35.674Z,100005.58
2018-01-20T17:09:03.214Z,100001.44
2018-01-20T17:11:30.762Z,100001.83
2018-01-20T17:13:58.360Z,100002.70
2018-01-20T17:16:26.063Z,100003.06
2018-01-20T17:18:53.639Z,100003.88
2018-01-20T17:21:21.178Z,100000.64
2018-01-20T17:23:49.467Z,100002.92
2018-01-20T17:26:17.941Z,99997.48
2018-01-20T17:28:46.267Z,99984.59
2018-01-20T17:31:13.896Z,99990.14
2018-01-20T17:33:41.433Z,99979.70
2018-01-20T17:36:09.202Z,99982.88
2018-01-20T17:38:36.786Z,99978.49
2018-01-20T17:41:04.342Z,99970.54
2018-01-20T17:43:31.913Z,99968.44
2018-01-20T17:45:59.459Z,99971.86
2018-01-20T17:48:27.054Z,99961.03
2018-01-20T17:50:54.598Z,99970.96
2018-01-20T17:53:22.364Z,99964.90
2018-01-20T17:55:49.910Z,99958.23
2018-01-20T17:58:18.222Z,99952.84
2018-01-20T18:00:45.802Z,99951.44
2018-01-20T18:03:13.345Z,99945.30
2018-01-20T18:05:40.959Z,99944.87
2018-01-20T18:08:08.585Z,99948.86
2018-01-20T18:10:36.380Z,99956.05
2018-01-20T18:13:03.926Z,99949.67
2018-01-20T18:15:31.505Z,99954.22
2018-01-20T18:17:59.046Z,99953.13
2018-01-20T18:20:26.627Z,99950.80
2018-01-20T18:22:55.076Z,99950.30
2018-01-20T18:25:22.630Z,99948.90
2018-01-20T18:27:50.245Z,99946.18
2018-01-20T18:30:17.793Z,99943.41
2018-01-20T18:32:46.243Z,99952.44
2018-01-20T18:35:13.836Z,99949.08
2018-01-20T18:37:41.399Z,99942.57
2018-01-20T18:40:08.942Z,99938.38
2018-01-20T18:42:36.514Z,99945.28
2018-01-20T18:45:05.251Z,99938.25
2018-01-20T18:47:32.982Z,99940.11
2018-01-20T18:50:00.530Z,99942.98
2018-01-20T18:52:28.076Z,99940.27
2018-01-20T18:54:55.653Z,99938.30
2018-01-20T18:57:23.314Z,99933.99
2018-01-20T18:59:50.862Z,99929.89
2018-01-20T19:02:18.406Z,99936.45
2018-01-20T19:04:46.097Z,99936.17
2018-01-20T19:07:13.661Z,99937.81
2018-01-20T19:09:41.218Z,99934.48
2018-01-20T19:12:08.774Z,99932.64
2018-01-20T19:14:36.362Z,99925.47
2018-01-20T19:17:03.962Z,99932.94
2018-01-20T19:19:32.125Z,99931.42
2018-01-20T19:21:59.669Z,99938.41
2018-01-20T19:24:27.414Z,99938.05
2018-01-20T19:26:54.970Z,99934.23
2018-01-20T19:29:22.526Z,99946.67
2018-01-20T19:31:50.084Z,99945.68
2018-01-20T19:34:17.642Z,99951.56
2018-01-20T19:36:45.189Z,99951.96
2018-01-20T19:39:12.770Z,99959.09
2018-01-20T19:41:41.411Z,99957.94
2018-01-20T19:44:09.834Z,99959.08
2018-01-20T19:46:38.182Z,99961.23
2018-01-20T19:49:05.737Z,99961.59
2018-01-20T19:51:33.298Z,99963.67
2018-01-20T19:54:00.895Z,99963.25
2018-01-20T19:56:28.451Z,99961.30
2018-01-20T19:58:56.075Z,99950.00
2018-01-20T20:01:23.635Z,99957.05
2018-01-20T20:03:51.380Z,99952.38
2018-01-20T20:06:18.972Z,99946.96
2018-01-20T20:08:46.524Z,99950.34
2018-01-20T20:11:14.074Z,99950.23
2018-01-20T20:13:41.630Z,99956.83
2018-01-20T20:16:09.219Z,99951.47
2018-01-20T20:18:36.960Z,99950.28
2018-01-20T20:21:04.521Z,99955.09
2018-01-20T20:23:32.141Z,99947.78
2018-01-20T20:25:59.695Z,99950.82
2018-01-20T20:28:27.294Z,99950.58
2018-01-20T20:30:54.845Z,99953.59
2018-01-20T20:33:22.399Z,99948.72
2018-01-20T20:35:49.953Z,99951.69
2018-01-20T20:38:17.555Z,99946.03
2018-01-20T20:40:45.310Z,99951.22
2018-01-20T20:43:12.871Z,99953.27
2018-01-20T20:45:40.470Z,99950.70
2018-01-20T20:48:12.375Z,99950.16
2018-01-20T20:56:33.048Z,99950.23
2018-01-20T20:59:09.257Z,99953.38
2018-01-20T21:01:43.356Z,99947.09
2018-01-20T21:13:55.004Z,99945.98
2018-01-20T21:16:23.240Z,99938.47
2018-01-20T21:18:55.575Z,99936.17
2018-01-20T21:21:32.130Z,99937.95
2018-01-20T21:24:15.672Z,99936.77
2018-01-20T21:26:45.433Z,99939.38
2018-01-20T21:29:22.519Z,99945.85
2018-01-20T21:31:52.721Z,99946.38
2018-01-20T21:37:20.402Z,99951.89
2018-01-20T21:39:55.933Z,99944.72
2018-01-20T21:42:24.672Z,99948.23
2018-01-20T21:44:57.335Z,99951.59
2018-01-20T21:47:31.320Z,99945.58
2018-01-20T21:49:59.650Z,99940.47
2018-01-20T21:52:35.349Z,99937.53
2018-01-20T22:06:37.683Z,99943.94
2018-01-20T22:09:05.271Z,99948.68
2018-01-20T22:11:32.966Z,99948.66
2018-01-20T22:14:00.529Z,99944.86
2018-01-20T22:16:28.142Z,99943.75
2018-01-20T22:18:55.701Z,99944.61
2018-01-20T22:21:23.353Z,99945.63
2018-01-20T22:23:50.910Z,99942.66
2018-01-20T22:26:18.465Z,99943.08
2018-01-20T22:28:46.058Z,99943.20
2018-01-20T22:31:13.679Z,99941.18
2018-01-20T22:33:41.505Z,99942.02
2018-01-20T22:36:09.137Z,99941.77
2018-01-20T22:38:36.769Z,99940.61
2018-01-20T22:41:04.319Z,99944.69
2018-01-20T22:43:31.924Z,99948.20
2018-01-20T22:45:59.475Z,99951.36
2018-01-20T22:48:28.606Z,99956.25
2018-01-20T22:50:56.199Z,99950.38
2018-01-20T22:53:23.905Z,99952.18
2018-01-20T22:55:51.493Z,99953.00
2018-01-20T22:58:19.054Z,99957.22
2018-01-20T23:00:46.685Z,99960.38
2018-01-20T23:03:14.242Z,99962.66
2018-01-20T23:05:41.799Z,99957.06
2018-01-20T23:08:10.401Z,99959.77
2018-01-20T23:10:38.236Z,99963.06
2018-01-20T23:13:05.786Z,99959.52
2018-01-20T23:15:33.354Z,99961.64
2018-01-20T23:18:00.942Z,99971.47
2018-01-20T23:20:28.494Z,99974.09
2018-01-20T23:22:56.078Z,99977.41
2018-01-20T23:25:23.729Z,99973.66
2018-01-20T23:27:51.326Z,99976.48
2018-01-20T23:30:18.915Z,99976.73
2018-01-20T23:32:47.434Z,99978.77
2018-01-20T23:35:14.989Z,99980.68
2018-01-20T23:37:43.102Z,99978.67
2018-01-20T23:40:10.653Z,99974.95
2018-01-20T23:42:38.211Z,99971.67
2018-01-20T23:45:05.820Z,99972.88
2018-01-20T23:47:33.410Z,99973.77
2018-01-20T23:50:00.961Z,99969.38
2018-01-20T23:52:28.508Z,99972.52
2018-01-20T23:54:56.062Z,99969.09
2018-01-20T23:57:23.627Z,99971.98
2018-01-20T23:59:51.173Z,99969.84
